Time;durP1;ratioP1;P1;durP2;ratioP2;P2;SDS_P1;SDS_P2;PMS_P1;PMS_P2;Temp;Humidity;BMP_temperature;BMP_pressure;BME280_temperature;BME280_humidity;BME280_pressure;Samples;Min_cycle;Max_cycle;Signal;HPM_P1;HPM_P2
2021/04/09 00:01:42;;;;;;;9.33;5.17;;;;;;;3.03;59.96;101079.19;5094507;28;20275;-71
2021/04/09 00:04:08;;;;;;;8.03;5.00;;;;;;;2.96;60.40;101080.16;5096018;28;20173;-71
2021/04/09 00:06:33;;;;;;;8.37;5.40;;;;;;;3.19;59.79;101074.47;5095024;28;20173;-71
2021/04/09 00:08:58;;;;;;;6.70;4.77;;;;;;;3.12;60.02;101074.59;5095188;28;20232;-71
2021/04/09 00:11:24;;;;;;;8.80;4.97;;;;;;;3.13;59.50;101070.19;5095747;28;20172;-71
2021/04/09 00:13:49;;;;;;;8.10;4.87;;;;;;;3.17;58.98;101071.00;5096328;28;20200;-70
2021/04/09 00:16:14;;;;;;;10.23;4.77;;;;;;;2.90;60.38;101056.53;5096444;28;20184;-71
2021/04/09 00:18:40;;;;;;;12.60;4.70;;;;;;;2.90;59.68;101056.53;5095625;28;20173;-71
2021/04/09 00:21:05;;;;;;;12.33;4.80;;;;;;;3.04;59.48;101054.53;5096014;28;20275;-72
2021/04/09 00:23:30;;;;;;;7.93;4.47;;;;;;;3.04;59.59;101054.53;5096801;28;20173;-71
2021/04/09 00:25:56;;;;;;;8.57;4.60;;;;;;;2.97;59.23;101050.25;5094506;28;20172;-70
2021/04/09 00:28:21;;;;;;;8.63;4.73;;;;;;;3.03;59.54;101043.13;5094627;28;20232;-71
2021/04/09 00:30:46;;;;;;;10.97;4.70;;;;;;;2.99;59.85;101024.75;5095047;28;20197;-70
2021/04/09 00:33:12;;;;;;;8.00;4.97;;;;;;;2.82;60.34;101031.19;5096503;28;20189;-70
2021/04/09 00:35:37;;;;;;;9.90;4.90;;;;;;;2.88;59.68;101022.31;5096944;28;20585;-71
2021/04/09 00:38:03;;;;;;;7.90;4.43;;;;;;;2.91;59.71;101026.66;5098237;28;20208;-71
2021/04/09 00:40:28;;;;;;;7.30;4.33;;;;;;;2.94;59.41;101031.84;5098762;28;20204;-72
2021/04/09 00:42:53;;;;;;;7.90;4.43;;;;;;;2.70;59.37;101012.09;5098342;28;20169;-72
2021/04/09 00:45:19;;;;;;;11.30;4.63;;;;;;;2.75;58.68;101011.13;5099285;28;20295;-69
2021/04/09 00:47:45;;;;;;;9.07;4.73;;;;;;;2.70;58.47;101007.69;5100635;28;20251;-72
2021/04/09 00:50:12;;;;;;;6.93;4.50;;;;;;;2.79;58.65;101004.03;5101987;28;20207;-71
2021/04/09 00:52:38;;;;;;;6.87;3.93;;;;;;;2.78;58.09;101011.06;5098353;28;20200;-71
2021/04/09 00:55:06;;;;;;;9.60;4.77;;;;;;;2.59;59.41;100999.09;5099872;28;20173;-72
2021/04/09 00:57:32;;;;;;;6.53;4.17;;;;;;;2.63;59.25;101010.47;5100777;28;20256;-71
2021/04/09 00:59:58;;;;;;;9.17;4.10;;;;;;;2.58;59.46;101007.91;5100140;28;20231;-71
2021/04/09 01:02:23;;;;;;;8.80;4.10;;;;;;;2.69;59.18;100999.81;5100234;28;20173;-71
2021/04/09 01:04:49;;;;;;;5.77;3.70;;;;;;;2.59;59.79;101004.38;5099085;28;20195;-71
2021/04/09 01:07:14;;;;;;;7.60;3.67;;;;;;;2.69;59.59;100992.78;5081741;28;20542;-70
2021/04/09 01:09:40;;;;;;;6.77;4.40;;;;;;;2.62;60.44;101001.72;5097997;28;20196;-72
2021/04/09 01:12:05;;;;;;;6.53;4.30;;;;;;;2.53;60.39;100991.31;5098869;28;20204;-71
2021/04/09 01:14:32;;;;;;;10.57;4.07;;;;;;;2.60;59.94;100990.31;5097547;28;20181;-71
2021/04/09 01:17:06;;;;;;;9.70;4.37;;;;;;;2.48;60.60;100985.25;5099445;28;20167;-71
2021/04/09 01:19:46;;;;;;;6.00;3.87;;;;;;;2.64;60.01;100984.09;5102331;28;20201;-71
2021/04/09 01:22:12;;;;;;;7.97;3.70;;;;;;;2.49;60.57;100972.03;5105096;28;20162;-70
2021/04/09 01:25:04;;;;;;;7.57;3.93;;;;;;;2.38;61.44;100978.41;5104158;28;20245;-72
2021/04/09 01:27:48;;;;;;;8.93;4.40;;;;;;;2.47;60.65;100983.50;5100871;28;20192;-72
2021/04/09 01:30:26;;;;;;;7.90;4.10;;;;;;;2.48;60.59;100964.16;5101453;28;20222;-71
2021/04/09 01:32:53;;;;;;;5.83;4.00;;;;;;;2.40;60.27;100960.81;5101217;28;20193;-70
2021/04/09 01:35:19;;;;;;;7.40;3.57;;;;;;;2.42;60.93;100959.00;5097381;28;20172;-71
2021/04/09 01:37:50;;;;;;;10.67;3.60;;;;;;;2.42;61.21;100949.34;5096413;28;20267;-71
2021/04/09 01:40:22;;;;;;;5.23;3.77;;;;;;;2.44;60.76;100944.03;5098687;28;20212;-71
2021/04/09 01:42:52;;;;;;;10.00;3.97;;;;;;;2.20;61.87;100943.56;5097971;28;20264;-72
2021/04/09 01:45:19;;;;;;;5.27;3.67;;;;;;;2.37;61.40;100947.69;5096815;28;20645;-71
2021/04/09 01:47:45;;;;;;;7.70;4.00;;;;;;;2.26;61.42;100931.22;5097281;28;20579;-72
2021/04/09 01:50:13;;;;;;;10.17;4.70;;;;;;;2.35;60.73;100916.09;5099341;28;20333;-72
2021/04/09 01:52:39;;;;;;;8.03;3.73;;;;;;;2.34;60.33;100934.56;5081018;28;20196;-71
2021/04/09 01:55:07;;;;;;;6.80;3.70;;;;;;;2.29;60.62;100936.44;5098383;28;20302;-71
2021/04/09 01:57:33;;;;;;;5.63;3.17;;;;;;;2.24;60.86;100917.22;5096778;28;20180;-71
2021/04/09 01:59:59;;;;;;;8.17;3.43;;;;;;;2.25;60.78;100921.56;5079894;28;20191;-72
2021/04/09 02:02:25;;;;;;;8.83;3.40;;;;;;;2.28;60.21;100919.75;5100335;28;20168;-71
2021/04/09 02:04:51;;;;;;;10.37;3.53;;;;;;;2.27;60.12;100911.88;5099766;28;20192;-72
2021/04/09 02:07:17;;;;;;;6.63;3.60;;;;;;;2.10;59.94;100914.78;5098526;28;20180;-72
2021/04/09 02:09:44;;;;;;;9.63;3.60;;;;;;;2.00;60.41;100907.94;5097954;28;20202;-72
2021/04/09 02:12:11;;;;;;;9.13;3.80;;;;;;;2.02;60.44;100904.38;5099456;28;20237;-72
2021/04/09 02:14:36;;;;;;;4.63;3.00;;;;;;;2.06;60.16;100900.81;5098619;28;20716;-71
2021/04/09 02:17:02;;;;;;;7.60;3.43;;;;;;;1.99;60.22;100891.28;5099716;28;20171;-71
2021/04/09 02:19:27;;;;;;;7.37;3.70;;;;;;;1.95;59.92;100883.47;5096911;28;20607;-72
2021/04/09 02:21:53;;;;;;;9.50;3.57;;;;;;;1.95;59.66;100871.16;5097628;28;20168;-72
2021/04/09 02:24:18;;;;;;;8.10;3.27;;;;;;;1.93;59.25;100874.72;5099039;28;20199;-71
2021/04/09 02:26:44;;;;;;;7.83;3.60;;;;;;;1.90;59.30;100886.19;5098937;28;20172;-74
2021/04/09 02:29:09;;;;;;;4.47;3.20;;;;;;;1.98;58.73;100873.75;5097932;28;20219;-72
2021/04/09 02:31:35;;;;;;;5.67;3.20;;;;;;;1.98;59.04;100872.88;5098947;28;20251;-73
2021/04/09 02:34:01;;;;;;;4.57;2.90;;;;;;;2.00;58.95;100877.22;5098533;28;20254;-72
2021/04/09 02:36:28;;;;;;;10.70;3.90;;;;;;;1.96;58.99;100864.16;5098900;28;20211;-73
2021/04/09 02:38:55;;;;;;;5.27;3.17;;;;;;;1.88;59.35;100880.06;5097339;28;20254;-72
2021/04/09 02:41:22;;;;;;;10.50;2.90;;;;;;;1.95;59.10;100868.53;5079886;28;20180;-72
2021/04/09 02:43:48;;;;;;;9.13;3.80;;;;;;;1.93;59.05;100858.94;5078609;28;20251;-70
2021/04/09 02:46:50;;;;;;;10.23;3.30;;;;;;;1.93;59.29;100835.25;5097771;28;20203;-72
2021/04/09 02:49:27;;;;;;;6.03;3.07;;;;;;;1.98;58.94;100844.78;5044644;28;20211;-70
2021/04/09 02:51:54;;;;;;;5.60;3.63;;;;;;;1.93;58.97;100844.00;5097105;28;20170;-72
2021/04/09 02:54:20;;;;;;;10.40;3.43;;;;;;;1.80;59.52;100831.94;5097597;28;20196;-72
2021/04/09 02:56:47;;;;;;;5.50;3.27;;;;;;;1.82;59.19;100831.00;5080481;28;20177;-71
2021/04/09 02:59:13;;;;;;;10.50;3.47;;;;;;;1.80;59.28;100809.13;5098551;28;20198;-71
2021/04/09 03:01:44;;;;;;;5.17;3.03;;;;;;;1.86;58.89;100810.81;5098757;28;20182;-71
2021/04/09 03:04:10;;;;;;;6.33;3.27;;;;;;;1.88;58.59;100803.75;5096086;28;20253;-71
2021/04/09 03:06:37;;;;;;;6.60;3.17;;;;;;;1.86;59.14;100813.44;5078774;28;20233;-72
2021/04/09 03:09:06;;;;;;;6.43;3.10;;;;;;;1.96;58.71;100803.59;5098099;28;20199;-71
2021/04/09 03:11:33;;;;;;;8.00;3.60;;;;;;;1.92;58.53;100805.41;5097969;28;20180;-72
2021/04/09 03:13:59;;;;;;;6.33;3.10;;;;;;;1.96;58.89;100796.56;5096869;28;20247;-70
2021/04/09 03:16:25;;;;;;;5.00;3.13;;;;;;;1.91;58.79;100782.63;5098784;28;20175;-72
2021/04/09 03:18:50;;;;;;;6.93;3.63;;;;;;;1.94;58.63;100792.22;5105639;28;20167;-71
2021/04/09 03:21:15;;;;;;;5.77;3.23;;;;;;;1.92;58.82;100802.78;5097809;28;20658;-71
2021/04/09 03:23:41;;;;;;;5.80;3.37;;;;;;;1.86;58.79;100800.28;5095276;28;20590;-72
2021/04/09 03:26:06;;;;;;;7.13;3.47;;;;;;;1.92;59.14;100791.41;5096173;28;20519;-72
2021/04/09 03:28:31;;;;;;;6.10;2.90;;;;;;;1.89;58.49;100784.44;5096237;28;20546;-72
2021/04/09 03:30:57;;;;;;;6.57;3.33;;;;;;;1.83;59.07;100800.28;5096029;28;20199;-72
2021/04/09 03:33:24;;;;;;;7.43;4.07;;;;;;;1.81;59.42;100799.47;5097383;28;20207;-71
2021/04/09 03:35:49;;;;;;;7.43;3.47;;;;;;;1.83;59.57;100795.03;5095322;28;20550;-71
2021/04/09 03:38:15;;;;;;;8.13;3.80;;;;;;;1.88;59.61;100775.66;5095823;28;20170;-71
2021/04/09 03:40:41;;;;;;;7.27;3.60;;;;;;;1.73;59.92;100793.47;5096651;28;20227;-71
2021/04/09 03:43:11;;;;;;;7.17;3.57;;;;;;;1.74;59.95;100775.03;5095109;28;20164;-72
2021/04/09 03:45:37;;;;;;;9.67;4.30;;;;;;;1.73;59.83;100785.56;5095289;28;20649;-71
2021/04/09 03:48:02;;;;;;;9.80;3.73;;;;;;;1.84;59.76;100759.91;5095521;28;20200;-71
2021/04/09 03:50:28;;;;;;;4.83;3.20;;;;;;;1.71;60.39;100776.84;5097252;28;20196;-71
2021/04/09 03:52:53;;;;;;;8.60;4.07;;;;;;;1.75;60.05;100754.84;5099036;28;20205;-71
2021/04/09 03:55:21;;;;;;;9.83;3.87;;;;;;;1.80;60.12;100752.97;5097820;28;20167;-72
2021/04/09 03:57:46;;;;;;;11.53;4.13;;;;;;;1.63;60.66;100765.59;5095349;28;20169;-72
2021/04/09 04:00:12;;;;;;;10.67;3.80;;;;;;;1.72;60.35;100752.25;5095311;28;20205;-71
2021/04/09 04:02:38;;;;;;;7.00;3.73;;;;;;;1.80;60.32;100745.09;5095881;28;20170;-71
2021/04/09 04:05:04;;;;;;;10.83;3.97;;;;;;;1.64;60.40;100752.41;5094506;28;20230;-72
2021/04/09 04:07:29;;;;;;;8.03;2.97;;;;;;;1.82;60.16;100765.22;5095345;28;20384;-71
2021/04/09 04:09:54;;;;;;;7.83;4.00;;;;;;;1.83;60.16;100750.28;5095725;28;20658;-70
2021/04/09 04:12:20;;;;;;;8.77;3.87;;;;;;;1.81;60.07;100747.69;5095788;28;20196;-71
2021/04/09 04:14:45;;;;;;;6.97;3.80;;;;;;;1.75;60.41;100747.81;5096364;28;20183;-71
2021/04/09 04:17:10;;;;;;;7.67;3.40;;;;;;;1.74;60.32;100740.81;5096915;28;20710;-71
2021/04/09 04:19:36;;;;;;;7.60;3.70;;;;;;;1.73;60.29;100740.84;5097232;28;20223;-72
2021/04/09 04:22:01;;;;;;;11.77;3.77;;;;;;;1.66;60.56;100733.97;5098993;28;20179;-71
2021/04/09 04:24:26;;;;;;;6.87;3.90;;;;;;;1.71;60.47;100732.97;5101180;28;20171;-72
2021/04/09 04:26:52;;;;;;;8.30;3.60;;;;;;;1.69;60.22;100724.25;5079318;28;20172;-72
2021/04/09 04:29:17;;;;;;;10.03;3.67;;;;;;;1.80;59.68;100750.34;5096098;28;20194;-70
2021/04/09 04:31:43;;;;;;;20.13;4.07;;;;;;;1.81;59.71;100726.63;5097414;28;20277;-72
2021/04/09 04:34:08;;;;;;;6.47;3.40;;;;;;;1.77;60.21;100724.09;5095832;28;20209;-71
2021/04/09 04:36:34;;;;;;;9.37;3.67;;;;;;;1.73;59.99;100727.69;5096216;28;20656;-72
2021/04/09 04:39:03;;;;;;;6.67;3.93;;;;;;;1.78;59.99;100738.97;5094783;28;20195;-71
2021/04/09 04:41:28;;;;;;;7.87;3.80;;;;;;;1.92;59.51;100734.34;5096454;28;20183;-71
2021/04/09 04:43:57;;;;;;;5.70;3.37;;;;;;;1.78;60.12;100721.44;5095900;28;20201;-71
2021/04/09 04:46:23;;;;;;;7.33;3.67;;;;;;;1.92;59.61;100736.97;5096051;28;20172;-72
2021/04/09 04:48:49;;;;;;;8.63;3.50;;;;;;;1.83;59.86;100713.44;5094638;28;20178;-71
2021/04/09 04:51:14;;;;;;;6.90;3.40;;;;;;;1.86;60.23;100718.69;5094028;28;20581;-70
2021/04/09 04:53:39;;;;;;;8.03;3.70;;;;;;;1.90;59.43;100717.72;5095483;28;20191;-71
2021/04/09 04:56:05;;;;;;;9.30;3.80;;;;;;;2.07;58.81;100712.13;5095928;28;20671;-71
2021/04/09 04:58:30;;;;;;;8.37;3.60;;;;;;;2.06;59.15;100698.09;5095591;28;20189;-71
2021/04/09 05:00:56;;;;;;;9.87;4.37;;;;;;;2.15;59.10;100711.06;5095257;28;20558;-71
2021/04/09 05:03:21;;;;;;;7.77;3.47;;;;;;;2.08;59.71;100714.72;5094877;28;20171;-72
2021/04/09 05:05:46;;;;;;;7.20;3.83;;;;;;;2.09;59.33;100698.03;5095045;28;20177;-72
2021/04/09 05:08:11;;;;;;;6.37;3.67;;;;;;;1.98;59.07;100714.94;5095457;28;20541;-71
2021/04/09 05:10:37;;;;;;;6.53;3.43;;;;;;;2.17;58.86;100698.72;5095701;28;20199;-71
2021/04/09 05:13:02;;;;;;;8.27;3.40;;;;;;;2.08;58.61;100698.91;5095529;28;20206;-71
2021/04/09 05:15:27;;;;;;;6.17;3.40;;;;;;;2.13;58.39;100712.84;5094755;28;20176;-71
2021/04/09 05:17:53;;;;;;;7.43;4.00;;;;;;;2.19;58.58;100704.81;5093377;28;20174;-71
2021/04/09 05:20:18;;;;;;;5.53;3.50;;;;;;;2.13;58.36;100704.94;5093704;28;20191;-71
2021/04/09 05:22:43;;;;;;;10.73;3.60;;;;;;;2.10;58.12;100696.25;5094847;28;20657;-70
2021/04/09 05:25:09;;;;;;;11.60;3.60;;;;;;;2.26;58.12;100704.72;5094940;28;20194;-71
2021/04/09 05:27:35;;;;;;;10.57;4.20;;;;;;;2.15;58.57;100703.16;5096899;28;20183;-71
2021/04/09 05:30:00;;;;;;;10.87;4.03;;;;;;;2.10;58.47;100705.03;5105915;28;20195;-72
2021/04/09 05:32:26;;;;;;;8.83;4.40;;;;;;;2.15;58.64;100697.88;5106376;28;20248;-73
2021/04/09 05:34:51;;;;;;;9.03;3.97;;;;;;;2.15;58.46;100697.88;5110300;28;20176;-72
2021/04/09 05:37:16;;;;;;;8.03;4.13;;;;;;;2.12;58.26;100679.53;5108280;28;20172;-73
2021/04/09 05:39:42;;;;;;;8.57;3.50;;;;;;;2.28;58.22;100713.47;5108882;28;20192;-71
2021/04/09 05:42:07;;;;;;;8.90;4.27;;;;;;;2.14;58.72;100705.81;5109949;28;20169;-72
2021/04/09 05:44:34;;;;;;;8.63;3.70;;;;;;;2.32;58.05;100707.22;5109881;28;20178;-72
2021/04/09 05:47:03;;;;;;;7.57;3.60;;;;;;;2.39;58.02;100711.44;5108702;28;20176;-72
2021/04/09 05:49:29;;;;;;;9.70;4.27;;;;;;;2.47;58.30;100714.78;5101404;28;20195;-72
2021/04/09 05:51:54;;;;;;;8.43;4.57;;;;;;;2.35;58.34;100715.06;5099952;28;20169;-72
2021/04/09 05:54:20;;;;;;;9.03;3.97;;;;;;;2.38;58.46;100721.13;5097819;28;20265;-71
2021/04/09 05:56:45;;;;;;;6.67;4.10;;;;;;;2.42;58.14;100695.59;5097653;28;20168;-72
2021/04/09 05:59:10;;;;;;;8.43;4.00;;;;;;;2.50;57.72;100706.81;5097483;28;20189;-71
2021/04/09 06:01:36;;;;;;;9.40;4.27;;;;;;;2.61;58.05;100699.56;5097542;28;20176;-72
2021/04/09 06:04:01;;;;;;;7.03;3.83;;;;;;;2.81;57.39;100707.00;5097791;28;20187;-71
2021/04/09 06:06:26;;;;;;;6.10;3.73;;;;;;;2.80;57.53;100708.78;5096783;28;20288;-72
2021/04/09 06:08:52;;;;;;;7.93;3.60;;;;;;;2.54;58.24;100710.25;5096108;28;20180;-71
2021/04/09 06:11:17;;;;;;;6.67;3.80;;;;;;;2.67;57.64;100699.41;5100229;28;20177;-72
2021/04/09 06:13:42;;;;;;;11.30;4.50;;;;;;;2.73;58.02;100694.00;5099696;28;20734;-72
2021/04/09 06:16:08;;;;;;;12.30;5.03;;;;;;;2.74;58.43;100701.00;5097981;28;20175;-70
2021/04/09 06:18:33;;;;;;;9.73;4.40;;;;;;;2.63;58.17;100695.13;5096655;28;20638;-70
2021/04/09 06:20:58;;;;;;;8.60;4.00;;;;;;;2.80;58.45;100686.81;5097763;28;20543;-70
2021/04/09 06:23:24;;;;;;;8.43;4.13;;;;;;;2.79;58.07;100685.09;5095954;28;20171;-71
2021/04/09 06:25:49;;;;;;;7.23;3.90;;;;;;;2.80;58.16;100690.31;5095782;28;20190;-70
2021/04/09 06:28:15;;;;;;;9.30;4.30;;;;;;;2.85;58.14;100678.78;5095906;28;20376;-71
2021/04/09 06:30:40;;;;;;;8.20;4.13;;;;;;;2.65;58.17;100676.63;5095790;28;20582;-72
2021/04/09 06:33:05;;;;;;;10.60;4.70;;;;;;;3.05;57.78;100689.75;5098801;28;20570;-70
2021/04/09 06:35:31;;;;;;;6.93;3.87;;;;;;;2.88;57.42;100679.59;5095264;28;20191;-70
2021/04/09 06:37:56;;;;;;;9.03;3.93;;;;;;;2.79;58.25;100679.81;5095367;28;20256;-70
2021/04/09 06:40:22;;;;;;;11.57;4.33;;;;;;;2.95;57.97;100682.94;5095061;28;20660;-71
2021/04/09 06:42:53;;;;;;;15.37;4.60;;;;;;;2.88;57.72;100673.44;5095146;28;20208;-71
2021/04/09 06:45:18;;;;;;;7.57;4.20;;;;;;;2.92;57.74;100675.97;5093111;28;20157;-71
2021/04/09 06:47:43;;;;;;;7.50;4.00;;;;;;;3.31;56.83;100663.56;5096120;28;20203;-71
2021/04/09 06:50:09;;;;;;;11.97;4.60;;;;;;;3.28;56.88;100676.84;5096304;28;20196;-72
2021/04/09 06:52:34;;;;;;;10.63;4.17;;;;;;;3.33;56.89;100666.16;5095645;28;20203;-71
2021/04/09 06:55:00;;;;;;;8.73;5.07;;;;;;;3.33;56.26;100656.47;5077124;28;20226;-70
2021/04/09 06:57:26;;;;;;;7.43;4.17;;;;;;;3.56;55.84;100658.50;5095370;28;20173;-70
2021/04/09 06:59:53;;;;;;;6.17;3.73;;;;;;;3.31;56.48;100653.00;5093396;28;20685;-71
2021/04/09 07:02:18;;;;;;;8.20;4.53;;;;;;;3.27;57.59;100667.19;5094047;28;20173;-72
2021/04/09 07:04:47;;;;;;;8.40;4.27;;;;;;;3.63;56.80;100660.06;5076994;28;20618;-70
2021/04/09 07:07:17;;;;;;;9.40;3.97;;;;;;;3.61;56.29;100659.25;5094008;28;20223;-70
2021/04/09 07:09:43;;;;;;;7.07;3.93;;;;;;;3.66;56.70;100638.88;5094560;28;20185;-72
2021/04/09 07:12:25;;;;;;;10.37;4.67;;;;;;;3.81;55.80;100642.88;5094913;28;20181;-71
2021/04/09 07:14:57;;;;;;;9.57;4.63;;;;;;;3.86;55.96;100651.53;5094256;28;20203;-71
2021/04/09 07:17:34;;;;;;;8.47;4.67;;;;;;;3.89;55.62;100638.25;5094652;28;20252;-71
2021/04/09 07:20:15;;;;;;;9.93;4.33;;;;;;;4.13;54.94;100633.16;5096811;28;20201;-71
2021/04/09 07:22:45;;;;;;;7.13;3.97;;;;;;;4.18;55.63;100632.13;5105216;28;20164;-73
2021/04/09 07:25:22;;;;;;;8.40;4.63;;;;;;;4.45;54.50;100630.38;5100489;28;20176;-72
2021/04/09 07:27:50;;;;;;;8.13;4.27;;;;;;;4.44;54.52;100610.16;5097164;28;20187;-73
2021/04/09 07:30:18;;;;;;;11.40;4.63;;;;;;;4.75;53.68;100639.16;5094764;28;20190;-71
2021/04/09 07:32:43;;;;;;;9.20;4.23;;;;;;;4.74;53.73;100636.53;5095467;28;20204;-71
2021/04/09 07:35:13;;;;;;;9.90;4.90;;;;;;;4.66;53.61;100627.09;5094306;28;20283;-71
2021/04/09 07:37:52;;;;;;;10.13;4.47;;;;;;;4.96;53.08;100627.00;5094802;28;20311;-71
2021/04/09 07:40:32;;;;;;;9.47;4.80;;;;;;;5.19;52.33;100642.09;5094236;28;20190;-72
2021/04/09 07:42:59;;;;;;;10.70;4.90;;;;;;;5.41;51.31;100629.00;5076951;28;20184;-71
2021/04/09 07:45:26;;;;;;;11.40;4.57;;;;;;;5.49;51.27;100624.31;5095980;28;20177;-70
2021/04/09 07:48:05;;;;;;;10.50;4.70;;;;;;;5.50;51.07;100623.38;5093885;28;20178;-71
2021/04/09 07:50:35;;;;;;;9.43;4.37;;;;;;;5.47;51.26;100631.44;5095078;28;20204;-71
2021/04/09 07:53:00;;;;;;;10.87;5.37;;;;;;;5.30;51.44;100624.97;5094243;28;20666;-71
2021/04/09 07:55:30;;;;;;;14.60;4.93;;;;;;;5.37;51.83;100622.97;5092829;28;20181;-71
2021/04/09 07:58:17;;;;;;;12.43;5.37;;;;;;;5.61;50.77;100595.63;5095892;28;20202;-71
2021/04/09 08:00:45;;;;;;;11.13;5.53;;;;;;;5.85;50.70;100615.03;5093840;28;20262;-71
2021/04/09 08:03:10;;;;;;;11.37;4.83;;;;;;;5.98;50.35;100641.13;5095613;28;20212;-71
2021/04/09 08:05:36;;;;;;;12.10;5.83;;;;;;;5.80;49.84;100616.13;5095070;28;20166;-71
2021/04/09 08:08:01;;;;;;;11.60;5.87;;;;;;;5.87;49.90;100609.69;5093281;28;20177;-71
2021/04/09 08:10:32;;;;;;;11.80;6.00;;;;;;;6.12;50.21;100614.97;5094931;28;20307;-70
2021/04/09 08:12:58;;;;;;;11.73;5.93;;;;;;;6.31;49.20;100613.31;5094686;28;20198;-70
2021/04/09 08:15:26;;;;;;;10.73;5.17;;;;;;;6.13;49.45;100616.69;5094419;28;20619;-70
2021/04/09 08:18:08;;;;;;;10.93;5.23;;;;;;;5.95;49.35;100600.59;5093253;28;20223;-70
2021/04/09 08:20:41;;;;;;;8.90;5.13;;;;;;;6.20;49.91;100600.50;5094292;28;20197;-70
2021/04/09 08:23:08;;;;;;;8.27;5.00;;;;;;;6.42;48.60;100597.88;5094506;28;20249;-70
2021/04/09 08:25:35;;;;;;;9.90;5.33;;;;;;;6.65;48.27;100596.09;5094589;28;20178;-69
2021/04/09 08:28:04;;;;;;;10.00;5.50;;;;;;;6.12;50.47;100607.03;5093049;28;20692;-70
2021/04/09 08:30:30;;;;;;;12.63;5.93;;;;;;;6.55;48.78;100596.47;5094388;28;20201;-70
2021/04/09 08:32:57;;;;;;;12.03;6.23;;;;;;;6.49;48.94;100587.91;5094171;28;20596;-69
2021/04/09 08:35:23;;;;;;;10.97;5.67;;;;;;;7.06;48.04;100578.44;5095442;28;20176;-70
2021/04/09 08:37:49;;;;;;;11.30;6.50;;;;;;;6.97;47.91;100565.59;5093663;28;20256;-70
2021/04/09 08:40:15;;;;;;;11.43;6.00;;;;;;;7.02;48.45;100572.41;5093670;28;20255;-70
2021/04/09 08:42:41;;;;;;;9.43;5.50;;;;;;;7.02;47.65;100560.94;5093671;28;20158;-70
2021/04/09 08:45:07;;;;;;;9.87;5.53;;;;;;;6.99;47.92;100561.94;5092368;28;20200;-70
2021/04/09 08:47:32;;;;;;;13.43;5.87;;;;;;;7.15;47.86;100565.69;5091689;28;20186;-70
2021/04/09 08:49:59;;;;;;;12.40;5.97;;;;;;;7.13;47.58;100572.84;5093522;28;20748;-71
2021/04/09 08:52:25;;;;;;;9.13;6.20;;;;;;;7.15;47.80;100559.50;5092037;28;20201;-70
2021/04/09 08:54:52;;;;;;;10.60;6.33;;;;;;;7.07;47.25;100577.56;5091942;28;20219;-71
2021/04/09 08:57:32;;;;;;;10.47;7.20;;;;;;;7.83;46.38;100569.72;5092437;28;20170;-69
2021/04/09 09:00:06;;;;;;;11.27;6.53;;;;;;;7.77;47.17;100585.94;5092148;28;20207;-70
2021/04/09 09:02:40;;;;;;;13.90;6.60;;;;;;;8.24;45.74;100564.28;5094037;28;20173;-70
2021/04/09 09:05:17;;;;;;;11.23;6.00;;;;;;;8.10;46.16;100556.06;5092581;28;20166;-69
2021/04/09 09:07:45;;;;;;;10.10;6.50;;;;;;;8.22;46.10;100563.50;5093337;28;20243;-68
2021/04/09 09:10:19;;;;;;;12.90;6.47;;;;;;;7.92;47.03;100560.47;5096824;28;20745;-70
2021/04/09 09:13:03;;;;;;;12.10;6.60;;;;;;;8.20;46.12;100560.06;5097412;28;20676;-71
2021/04/09 09:15:43;;;;;;;11.10;6.37;;;;;;;8.55;45.45;100552.19;5096949;28;20179;-70
2021/04/09 09:18:24;;;;;;;10.27;6.13;;;;;;;8.08;46.35;100556.16;5097158;28;20701;-70
2021/04/09 09:21:14;;;;;;;10.87;6.80;;;;;;;8.25;44.96;100558.03;5096749;28;20193;-70
2021/04/09 09:23:57;;;;;;;11.87;7.50;;;;;;;8.45;44.09;100544.66;5097089;28;20241;-70
2021/04/09 09:26:35;;;;;;;11.87;6.60;;;;;;;8.60;44.71;100542.19;5097331;28;20171;-70
2021/04/09 09:29:16;;;;;;;11.50;6.57;;;;;;;8.82;43.66;100555.28;5095249;28;20727;-70
2021/04/09 09:31:48;;;;;;;10.20;6.00;;;;;;;9.12;43.23;100532.44;5096837;28;20169;-70
2021/04/09 09:34:16;;;;;;;12.43;7.23;;;;;;;9.06;43.77;100532.75;5095761;28;20201;-70
2021/04/09 09:37:16;;;;;;;12.07;6.20;;;;;;;9.02;43.66;100532.06;5096817;28;20206;-70
2021/04/09 09:39:49;;;;;;;10.50;6.43;;;;;;;8.87;43.93;100523.97;5096985;28;20202;-70
2021/04/09 09:42:20;;;;;;;11.50;6.53;;;;;;;9.06;43.72;100544.25;5096439;28;20649;-69
2021/04/09 09:44:47;;;;;;;9.90;6.37;;;;;;;8.88;44.77;100513.25;5096488;28;20173;-70
2021/04/09 09:47:32;;;;;;;9.90;6.13;;;;;;;8.91;44.13;100530.84;5095435;28;20716;-70
2021/04/09 09:50:00;;;;;;;12.23;6.13;;;;;;;9.29;44.00;100527.13;5096272;28;20189;-70
2021/04/09 09:52:38;;;;;;;7.33;5.87;;;;;;;9.14;45.21;100508.41;5095913;28;20288;-70
2021/04/09 09:55:16;;;;;;;11.07;6.27;;;;;;;9.46;43.84;100574.16;5096563;28;20190;-69
2021/04/09 09:57:49;;;;;;;8.43;5.47;;;;;;;9.34;44.60;100518.88;5095927;28;20631;-70
2021/04/09 10:00:23;;;;;;;8.73;5.87;;;;;;;9.43;44.45;100513.06;5095222;28;20678;-70
2021/04/09 10:02:48;;;;;;;9.93;6.37;;;;;;;9.27;44.49;100534.28;5097232;28;20510;-70
2021/04/09 10:05:14;;;;;;;10.50;6.17;;;;;;;9.18;44.88;100534.78;5094926;28;20249;-70
2021/04/09 10:07:39;;;;;;;8.50;5.97;;;;;;;9.32;44.29;100520.75;5096519;28;20652;-70
2021/04/09 10:10:05;;;;;;;9.87;6.37;;;;;;;9.18;44.28;100516.13;5094932;28;20307;-70
2021/04/09 10:12:30;;;;;;;10.70;6.40;;;;;;;9.29;44.90;100519.13;5094603;28;20326;-70
2021/04/09 10:14:55;;;;;;;11.80;5.87;;;;;;;9.76;44.56;100518.38;5096273;28;20626;-70
2021/04/09 10:17:21;;;;;;;10.27;6.07;;;;;;;10.54;41.66;100514.03;5097004;28;20189;-70
2021/04/09 10:20:00;;;;;;;11.33;5.77;;;;;;;10.14;42.75;100520.75;5096016;28;20190;-69
2021/04/09 10:22:25;;;;;;;9.97;5.83;;;;;;;10.05;42.82;100535.44;5097401;28;20173;-70
2021/04/09 10:24:50;;;;;;;17.43;6.57;;;;;;;10.04;43.77;100512.41;5100501;28;20409;-68
2021/04/09 10:27:16;;;;;;;11.57;5.63;;;;;;;9.85;43.55;100559.66;5100945;28;20186;-69
2021/04/09 10:29:41;;;;;;;9.43;5.60;;;;;;;9.93;44.60;100514.78;5096200;28;20283;-68
2021/04/09 10:32:26;;;;;;;12.33;6.00;;;;;;;10.05;44.58;100518.59;5095989;28;20279;-68
2021/04/09 10:34:52;;;;;;;15.43;5.90;;;;;;;10.19;44.16;100513.34;5095427;28;20587;-68
2021/04/09 10:37:19;;;;;;;9.07;6.17;;;;;;;10.25;44.38;100519.22;5095578;28;20228;-69
2021/04/09 10:39:44;;;;;;;9.00;5.20;;;;;;;10.48;43.61;100506.38;5095650;28;20674;-68
2021/04/09 10:42:10;;;;;;;10.13;6.33;;;;;;;11.08;42.80;100504.56;5096234;28;20185;-69
2021/04/09 10:44:35;;;;;;;7.87;5.17;;;;;;;11.47;41.79;100509.28;5093847;28;20178;-69
2021/04/09 10:47:03;;;;;;;18.30;6.13;;;;;;;11.72;41.70;100523.81;5095255;28;20178;-69
2021/04/09 10:49:35;;;;;;;10.60;5.30;;;;;;;11.43;41.54;100505.09;5094825;28;20250;-70
2021/04/09 10:52:09;;;;;;;10.47;5.60;;;;;;;10.94;43.28;100505.41;5095605;28;20583;-70
2021/04/09 10:54:36;;;;;;;10.07;5.80;;;;;;;10.73;44.14;100505.78;5095322;28;20166;-70
2021/04/09 10:57:03;;;;;;;13.90;5.60;;;;;;;11.19;43.83;100488.78;5094154;28;20226;-69
2021/04/09 10:59:36;;;;;;;12.83;5.80;;;;;;;11.45;42.86;100495.16;5095045;28;20194;-69
2021/04/09 11:02:03;;;;;;;10.10;5.80;;;;;;;11.58;42.05;100495.28;5094159;28;20185;-69
2021/04/09 11:04:30;;;;;;;9.60;5.77;;;;;;;12.53;40.48;100490.91;5095402;28;20182;-70
2021/04/09 11:06:59;;;;;;;9.13;5.77;;;;;;;12.91;39.72;100487.47;5093464;28;20179;-69
2021/04/09 11:09:45;;;;;;;8.70;5.47;;;;;;;13.51;38.56;100492.28;5094657;28;20186;-69
2021/04/09 11:12:43;;;;;;;9.57;5.50;;;;;;;14.52;36.66;100490.34;5095273;28;20587;-70
2021/04/09 11:15:11;;;;;;;9.37;5.20;;;;;;;15.10;35.66;100483.22;5092754;28;20647;-70
2021/04/09 11:17:37;;;;;;;10.27;5.60;;;;;;;14.24;37.43;100494.19;5093256;28;20383;-69
2021/04/09 11:20:45;;;;;;;8.63;5.27;;;;;;;15.28;35.20;100488.06;5093206;28;20680;-70
2021/04/09 11:23:15;;;;;;;7.80;4.87;;;;;;;15.46;35.18;100472.31;5003071;28;20553;-70
2021/04/09 11:25:48;;;;;;;6.50;4.47;;;;;;;15.36;34.14;100467.78;5097379;28;20186;-69
2021/04/09 11:28:27;;;;;;;7.00;5.20;;;;;;;14.89;35.96;100483.06;5109228;28;20231;-69
2021/04/09 11:30:59;;;;;;;7.77;4.53;;;;;;;16.38;32.71;100511.56;5097469;28;20202;-68
2021/04/09 11:33:35;;;;;;;7.00;4.27;;;;;;;15.83;33.87;100475.63;5094154;28;20190;-68
2021/04/09 11:36:13;;;;;;;9.83;5.00;;;;;;;17.12;32.19;100482.03;5093930;28;20579;-68